sensor_id;sensor_type;location;lat;lon;timestamp;pressure;altitude;pressure_sealevel;temperature;humidity
2675;BME280;1347;42.122;24.746;2023-02-13T00:00:32;101502.50;;;4.65;63.26
2675;BME280;1347;42.122;24.746;2023-02-13T00:03:00;101498.72;;;4.61;63.44
2675;BME280;1347;42.122;24.746;2023-02-13T00:05:27;101498.16;;;4.64;63.39
2675;BME280;1347;42.122;24.746;2023-02-13T00:07:54;101504.69;;;4.63;63.49
2675;BME280;1347;42.122;24.746;2023-02-13T00:10:22;101504.47;;;4.54;63.77
2675;BME280;1347;42.122;24.746;2023-02-13T00:12:49;101508.00;;;4.55;63.67
2675;BME280;1347;42.122;24.746;2023-02-13T00:15:16;101499.84;;;4.55;63.86
2675;BME280;1347;42.122;24.746;2023-02-13T00:17:43;101509.34;;;4.52;63.97
2675;BME280;1347;42.122;24.746;2023-02-13T00:20:10;101509.63;;;4.56;64.03
2675;BME280;1347;42.122;24.746;2023-02-13T00:22:38;101513.16;;;4.56;64.22
2675;BME280;1347;42.122;24.746;2023-02-13T00:25:06;101515.66;;;4.48;64.44
2675;BME280;1347;42.122;24.746;2023-02-13T00:27:34;101518.91;;;4.44;64.74
2675;BME280;1347;42.122;24.746;2023-02-13T00:30:02;101520.78;;;4.49;64.52
2675;BME280;1347;42.122;24.746;2023-02-13T00:32:28;101516.47;;;4.43;64.85
2675;BME280;1347;42.122;24.746;2023-02-13T00:34:56;101519.44;;;4.47;64.71
2675;BME280;1347;42.122;24.746;2023-02-13T00:37:23;101511.81;;;4.49;64.71
2675;BME280;1347;42.122;24.746;2023-02-13T00:39:49;101518.63;;;4.46;64.76
2675;BME280;1347;42.122;24.746;2023-02-13T00:42:16;101521.63;;;4.39;65.09
2675;BME280;1347;42.122;24.746;2023-02-13T00:44:45;101517.53;;;4.47;64.78
2675;BME280;1347;42.122;24.746;2023-02-13T00:47:11;101518.91;;;4.44;64.87
2675;BME280;1347;42.122;24.746;2023-02-13T00:49:39;101519.44;;;4.47;65.00
2675;BME280;1347;42.122;24.746;2023-02-13T00:52:06;101517.28;;;4.43;64.97
2675;BME280;1347;42.122;24.746;2023-02-13T00:54:33;101518.91;;;4.44;65.12
2675;BME280;1347;42.122;24.746;2023-02-13T00:57:00;101511.00;;;4.48;65.04
2675;BME280;1347;42.122;24.746;2023-02-13T00:59:27;101517.81;;;4.46;64.76
2675;BME280;1347;42.122;24.746;2023-02-13T01:01:55;101513.75;;;4.43;65.22
2675;BME280;1347;42.122;24.746;2023-02-13T01:04:22;101513.22;;;4.41;65.33
2675;BME280;1347;42.122;24.746;2023-02-13T01:06:49;101513.53;;;4.34;65.40
2675;BME280;1347;42.122;24.746;2023-02-13T01:09:16;101520.00;;;4.38;65.31
2675;BME280;1347;42.122;24.746;2023-02-13T01:11:42;101520.28;;;4.42;65.26
2675;BME280;1347;42.122;24.746;2023-02-13T01:14:09;101518.91;;;4.44;65.13
2675;BME280;1347;42.122;24.746;2023-02-13T01:16:36;101527.59;;;4.47;65.03
2675;BME280;1347;42.122;24.746;2023-02-13T01:19:04;101516.97;;;4.50;64.85
2675;BME280;1347;42.122;24.746;2023-02-13T01:21:31;101514.47;;;4.59;64.58
2675;BME280;1347;42.122;24.746;2023-02-13T01:24:02;101517.50;;;4.57;64.61
2675;BME280;1347;42.122;24.746;2023-02-13T01:26:29;101516.91;;;4.60;64.55
2675;BME280;1347;42.122;24.746;2023-02-13T01:28:56;101519.59;;;4.65;64.44
2675;BME280;1347;42.122;24.746;2023-02-13T01:31:23;101519.34;;;4.67;64.58
2675;BME280;1347;42.122;24.746;2023-02-13T01:33:50;101523.69;;;4.68;64.44
2675;BME280;1347;42.122;24.746;2023-02-13T01:36:19;101523.38;;;4.69;64.64
2675;BME280;1347;42.122;24.746;2023-02-13T01:38:46;101524.72;;;4.72;64.17
2675;BME280;1347;42.122;24.746;2023-02-13T01:41:12;101532.88;;;4.72;64.54
2675;BME280;1347;42.122;24.746;2023-02-13T01:43:51;101535.03;;;4.75;64.08
2675;BME280;1347;42.122;24.746;2023-02-13T01:46:22;101535.59;;;4.72;64.35
2675;BME280;1347;42.122;24.746;2023-02-13T01:48:51;101534.22;;;4.69;64.52
2675;BME280;1347;42.122;24.746;2023-02-13T01:51:23;101541.06;;;4.62;64.69
2675;BME280;1347;42.122;24.746;2023-02-13T01:53:56;101538.63;;;4.65;64.61
2675;BME280;1347;42.122;24.746;2023-02-13T01:56:27;101540.00;;;4.63;64.57
2675;BME280;1347;42.122;24.746;2023-02-13T01:58:59;101544.34;;;4.59;64.27
2675;BME280;1347;42.122;24.746;2023-02-13T02:01:27;101537.31;;;4.53;64.93
2675;BME280;1347;42.122;24.746;2023-02-13T02:03:56;101540.13;;;4.37;65.24
2675;BME280;1347;42.122;24.746;2023-02-13T02:06:27;101548.31;;;4.27;65.64
2675;BME280;1347;42.122;24.746;2023-02-13T02:08:59;101545.88;;;4.26;65.77
2675;BME280;1347;42.122;24.746;2023-02-13T02:11:33;101553.78;;;4.17;66.23
2675;BME280;1347;42.122;24.746;2023-02-13T02:14:01;101555.16;;;4.04;66.68
2675;BME280;1347;42.122;24.746;2023-02-13T02:16:28;101547.56;;;4.01;67.06
2675;BME280;1347;42.122;24.746;2023-02-13T02:18:57;101555.47;;;3.93;67.44
2675;BME280;1347;42.122;24.746;2023-02-13T02:22:04;101556.00;;;3.90;67.73
2675;BME280;1347;42.122;24.746;2023-02-13T02:31:20;101580.22;;;3.56;68.91
2675;BME280;1347;42.122;24.746;2023-02-13T02:34:05;101576.16;;;3.53;69.16
2675;BME280;1347;42.122;24.746;2023-02-13T02:36:46;101575.88;;;3.50;69.47
2675;BME280;1347;42.122;24.746;2023-02-13T02:39:25;101577.22;;;3.37;69.84
2675;BME280;1347;42.122;24.746;2023-02-13T02:42:05;101586.97;;;3.28;70.37
2675;BME280;1347;42.122;24.746;2023-02-13T02:44:42;101590.75;;;3.17;71.04
2675;BME280;1347;42.122;24.746;2023-02-13T02:47:17;101597.81;;;3.23;71.11
2675;BME280;1347;42.122;24.746;2023-02-13T02:50:15;101599.41;;;3.04;71.93
2675;BME280;1347;42.122;24.746;2023-02-13T02:52:56;101595.63;;;3.00;72.13
2675;BME280;1347;42.122;24.746;2023-02-13T02:55:31;101600.16;;;2.74;73.41
2675;BME280;1347;42.122;24.746;2023-02-13T02:58:07;101590.81;;;2.44;74.38
2675;BME280;1347;42.122;24.746;2023-02-13T03:00:54;101601.84;;;2.28;75.24
2675;BME280;1347;42.122;24.746;2023-02-13T03:03:40;101605.25;;;2.08;76.21
2675;BME280;1347;42.122;24.746;2023-02-13T03:06:29;101609.06;;;1.70;77.79
2675;BME280;1347;42.122;24.746;2023-02-13T03:09:01;101607.53;;;1.47;79.33
2675;BME280;1347;42.122;24.746;2023-02-13T03:11:55;101610.66;;;1.34;80.06
2675;BME280;1347;42.122;24.746;2023-02-13T03:14:40;101609.22;;;1.21;80.85
2675;BME280;1347;42.122;24.746;2023-02-13T03:17:09;101604.81;;;1.15;81.57
2675;BME280;1347;42.122;24.746;2023-02-13T03:19:59;101611.41;;;0.97;82.57
2675;BME280;1347;42.122;24.746;2023-02-13T03:23:02;101604.56;;;0.90;83.27
2675;BME280;1347;42.122;24.746;2023-02-13T03:25:37;101598.00;;;0.81;83.82
2675;BME280;1347;42.122;24.746;2023-02-13T03:28:16;101603.00;;;0.72;84.60
2675;BME280;1347;42.122;24.746;2023-02-13T03:31:10;101600.63;;;0.76;84.42
2675;BME280;1347;42.122;24.746;2023-02-13T03:33:54;101612.50;;;0.74;84.78
2675;BME280;1347;42.122;24.746;2023-02-13T03:36:30;101603.81;;;0.72;85.15
2675;BME280;1347;42.122;24.746;2023-02-13T03:39:22;101608.22;;;0.79;84.73
2675;BME280;1347;42.122;24.746;2023-02-13T03:41:54;101608.13;;;0.68;84.94
2675;BME280;1347;42.122;24.746;2023-02-13T03:44:27;101619.19;;;0.72;84.99
2675;BME280;1347;42.122;24.746;2023-02-13T03:46:59;101616.09;;;0.80;84.93
2675;BME280;1347;42.122;24.746;2023-02-13T03:49:30;101616.13;;;0.85;84.69
2675;BME280;1347;42.122;24.746;2023-02-13T03:52:21;101608.22;;;0.79;84.70
2675;BME280;1347;42.122;24.746;2023-02-13T03:54:54;101606.84;;;0.76;85.04
2675;BME280;1347;42.122;24.746;2023-02-13T03:57:40;101612.44;;;0.69;85.50
2675;BME280;1347;42.122;24.746;2023-02-13T04:00:27;101614.91;;;0.71;85.29
2675;BME280;1347;42.122;24.746;2023-02-13T04:03:06;101614.56;;;0.67;85.34
2675;BME280;1347;42.122;24.746;2023-02-13T04:05:40;101614.47;;;0.57;85.73
2675;BME280;1347;42.122;24.746;2023-02-13T04:08:08;101610.56;;;0.48;86.15
2675;BME280;1347;42.122;24.746;2023-02-13T04:10:41;101615.97;;;0.48;86.00
2675;BME280;1347;42.122;24.746;2023-02-13T04:13:14;101612.94;;;0.45;86.02
2675;BME280;1347;42.122;24.746;2023-02-13T04:15:47;101613.63;;;0.57;85.79
2675;BME280;1347;42.122;24.746;2023-02-13T04:18:18;101614.47;;;0.57;85.71
2675;BME280;1347;42.122;24.746;2023-02-13T04:20:46;101612.38;;;0.64;85.47
2675;BME280;1347;42.122;24.746;2023-02-13T04:23:14;101613.50;;;0.68;85.02
2675;BME280;1347;42.122;24.746;2023-02-13T04:25:46;101622.44;;;0.47;85.54
2675;BME280;1347;42.122;24.746;2023-02-13T04:28:14;101622.41;;;0.25;86.53
2675;BME280;1347;42.122;24.746;2023-02-13T04:30:41;101623.16;;;0.21;86.89
2675;BME280;1347;42.122;24.746;2023-02-13T04:33:08;101614.06;;;0.27;87.13
2675;BME280;1347;42.122;24.746;2023-02-13T04:35:35;101613.03;;;0.11;87.42
2675;BME280;1347;42.122;24.746;2023-02-13T04:38:02;101621.56;;;0.03;88.41
2675;BME280;1347;42.122;24.746;2023-02-13T04:40:29;101617.06;;;0.09;88.45
2675;BME280;1347;42.122;24.746;2023-02-13T04:42:57;101610.63;;;0.10;88.31
2675;BME280;1347;42.122;24.746;2023-02-13T04:45:24;101615.28;;;-0.03;88.46
2675;BME280;1347;42.122;24.746;2023-02-13T04:47:53;101625.41;;;-0.10;88.92
2675;BME280;1347;42.122;24.746;2023-02-13T04:50:20;101625.75;;;-0.06;89.27
2675;BME280;1347;42.122;24.746;2023-02-13T04:52:49;101630.16;;;0.00;88.63
2675;BME280;1347;42.122;24.746;2023-02-13T04:55:18;101629.16;;;0.06;88.46
2675;BME280;1347;42.122;24.746;2023-02-13T04:57:45;101626.06;;;-0.03;88.45
2675;BME280;1347;42.122;24.746;2023-02-13T05:00:14;101629.69;;;-0.14;88.58
2675;BME280;1347;42.122;24.746;2023-02-13T05:02:41;101629.28;;;-0.22;89.04
2675;BME280;1347;42.122;24.746;2023-02-13T05:05:08;101630.34;;;-0.23;89.33
2675;BME280;1347;42.122;24.746;2023-02-13T05:07:35;101629.84;;;-0.37;89.60
2675;BME280;1347;42.122;24.746;2023-02-13T05:10:02;101635.00;;;-0.52;89.92
2675;BME280;1347;42.122;24.746;2023-02-13T05:12:29;101633.50;;;-0.60;90.65
2675;BME280;1347;42.122;24.746;2023-02-13T05:14:56;101643.38;;;-0.65;91.09
2675;BME280;1347;42.122;24.746;2023-02-13T05:17:25;101641.66;;;-0.71;91.50
2675;BME280;1347;42.122;24.746;2023-02-13T05:19:52;101638.22;;;-0.84;91.95
2675;BME280;1347;42.122;24.746;2023-02-13T05:22:19;101645.59;;;-0.91;92.72
2675;BME280;1347;42.122;24.746;2023-02-13T05:25:04;101641.78;;;-0.95;93.53
2675;BME280;1347;42.122;24.746;2023-02-13T05:27:31;101649.03;;;-0.95;93.70
2675;BME280;1347;42.122;24.746;2023-02-13T05:29:57;101653.25;;;-0.99;93.96
2675;BME280;1347;42.122;24.746;2023-02-13T05:32:25;101655.84;;;-1.04;94.18
2675;BME280;1347;42.122;24.746;2023-02-13T05:34:52;101662.44;;;-1.12;94.49
2675;BME280;1347;42.122;24.746;2023-02-13T05:37:18;101669.22;;;-1.21;95.18
2675;BME280;1347;42.122;24.746;2023-02-13T05:39:45;101663.03;;;-1.22;95.38
2675;BME280;1347;42.122;24.746;2023-02-13T05:42:12;101669.34;;;-1.16;95.48
2675;BME280;1347;42.122;24.746;2023-02-13T05:44:39;101675.41;;;-1.09;95.00
2675;BME280;1347;42.122;24.746;2023-02-13T05:47:06;101684.50;;;-0.98;94.97
2675;BME280;1347;42.122;24.746;2023-02-13T05:49:34;101685.66;;;-0.94;94.50
2675;BME280;1347;42.122;24.746;2023-02-13T05:52:01;101688.38;;;-0.78;94.42
2675;BME280;1347;42.122;24.746;2023-02-13T05:54:28;101687.34;;;-0.60;94.03
2675;BME280;1347;42.122;24.746;2023-02-13T05:56:55;101692.88;;;-0.38;92.96
2675;BME280;1347;42.122;24.746;2023-02-13T05:59:22;101694.03;;;-0.34;91.49
2675;BME280;1347;42.122;24.746;2023-02-13T06:01:49;101696.41;;;-0.21;91.46
2675;BME280;1347;42.122;24.746;2023-02-13T06:04:16;101700.50;;;-0.02;91.39
2675;BME280;1347;42.122;24.746;2023-02-13T06:06:44;101703.31;;;0.25;90.33
2675;BME280;1347;42.122;24.746;2023-02-13T06:09:11;101701.53;;;0.53;89.20
2675;BME280;1347;42.122;24.746;2023-02-13T06:11:38;101702.88;;;0.94;87.75
2675;BME280;1347;42.122;24.746;2023-02-13T06:14:05;101695.53;;;1.11;85.47
2675;BME280;1347;42.122;24.746;2023-02-13T06:16:32;101697.78;;;1.46;85.02
2675;BME280;1347;42.122;24.746;2023-02-13T06:18:59;101704.53;;;2.07;82.37
2675;BME280;1347;42.122;24.746;2023-02-13T06:21:26;101706.25;;;2.61;80.24
2675;BME280;1347;42.122;24.746;2023-02-13T06:23:54;101701.59;;;3.13;77.70
2675;BME280;1347;42.122;24.746;2023-02-13T06:26:21;101700.59;;;3.45;75.47
2675;BME280;1347;42.122;24.746;2023-02-13T06:28:48;101707.69;;;3.96;73.57
2675;BME280;1347;42.122;24.746;2023-02-13T06:31:15;101715.53;;;3.83;72.12
2675;BME280;1347;42.122;24.746;2023-02-13T06:33:42;101706.03;;;3.65;72.34
2675;BME280;1347;42.122;24.746;2023-02-13T06:36:09;101703.28;;;3.50;72.94
2675;BME280;1347;42.122;24.746;2023-02-13T06:38:36;101698.66;;;3.30;73.35
2675;BME280;1347;42.122;24.746;2023-02-13T06:41:04;101700.50;;;3.19;73.94
2675;BME280;1347;42.122;24.746;2023-02-13T06:43:31;101704.00;;;3.10;74.25
2675;BME280;1347;42.122;24.746;2023-02-13T06:45:58;101702.66;;;3.12;74.06
2675;BME280;1347;42.122;24.746;2023-02-13T06:48:25;101695.88;;;3.10;74.40
2675;BME280;1347;42.122;24.746;2023-02-13T06:50:52;101701.34;;;3.15;74.16
2675;BME280;1347;42.122;24.746;2023-02-13T06:53:19;101695.63;;;3.11;73.96
2675;BME280;1347;42.122;24.746;2023-02-13T06:55:50;101707.53;;;3.10;73.97
2675;BME280;1347;42.122;24.746;2023-02-13T06:58:19;101696.91;;;2.99;74.36
2675;BME280;1347;42.122;24.746;2023-02-13T07:00:45;101698.00;;;2.92;74.63
2675;BME280;1347;42.122;24.746;2023-02-13T07:03:12;101696.66;;;3.00;74.71
2675;BME280;1347;42.122;24.746;2023-02-13T07:05:39;101698.59;;;3.10;74.48
2675;BME280;1347;42.122;24.746;2023-02-13T07:08:07;101695.38;;;3.23;73.77
2675;BME280;1347;42.122;24.746;2023-02-13T07:10:36;101688.09;;;3.39;73.53
2675;BME280;1347;42.122;24.746;2023-02-13T07:13:03;101688.66;;;3.46;73.39
2675;BME280;1347;42.122;24.746;2023-02-13T07:15:31;101687.31;;;3.63;73.02
2675;BME280;1347;42.122;24.746;2023-02-13T07:17:58;101688.94;;;4.00;72.04
2675;BME280;1347;42.122;24.746;2023-02-13T07:20:26;101691.38;;;5.95;67.71
2675;BME280;1347;42.122;24.746;2023-02-13T07:22:56;101695.53;;;8.65;59.61
2675;BME280;1347;42.122;24.746;2023-02-13T07:25:23;101698.34;;;11.62;51.43
2675;BME280;1347;42.122;24.746;2023-02-13T07:27:50;101690.88;;;12.69;46.74
2675;BME280;1347;42.122;24.746;2023-02-13T07:30:17;101694.75;;;14.67;42.71
2675;BME280;1347;42.122;24.746;2023-02-13T07:32:46;101697.69;;;16.31;39.25
2675;BME280;1347;42.122;24.746;2023-02-13T07:35:13;101703.63;;;17.43;37.11
2675;BME280;1347;42.122;24.746;2023-02-13T07:37:40;101702.25;;;18.75;34.73
2675;BME280;1347;42.122;24.746;2023-02-13T07:40:08;101698.03;;;19.08;33.36
2675;BME280;1347;42.122;24.746;2023-02-13T07:42:35;101699.84;;;19.50;32.92
2675;BME280;1347;42.122;24.746;2023-02-13T07:45:02;101700.94;;;19.75;32.30
2675;BME280;1347;42.122;24.746;2023-02-13T07:47:32;101693.88;;;19.81;31.79
2675;BME280;1347;42.122;24.746;2023-02-13T07:50:00;101695.28;;;18.85;32.20
2675;BME280;1347;42.122;24.746;2023-02-13T07:52:27;101693.44;;;17.32;34.13
2675;BME280;1347;42.122;24.746;2023-02-13T07:54:54;101698.66;;;16.67;35.23
2675;BME280;1347;42.122;24.746;2023-02-13T07:57:21;101701.88;;;15.81;36.28
2675;BME280;1347;42.122;24.746;2023-02-13T07:59:48;101705.94;;;14.71;37.08
2675;BME280;1347;42.122;24.746;2023-02-13T08:02:15;101694.50;;;14.03;39.25
2675;BME280;1347;42.122;24.746;2023-02-13T08:04:42;101686.50;;;14.22;39.34
2675;BME280;1347;42.122;24.746;2023-02-13T08:07:12;101687.53;;;14.63;38.30
2675;BME280;1347;42.122;24.746;2023-02-13T08:09:39;101675.56;;;15.60;37.64
2675;BME280;1347;42.122;24.746;2023-02-13T08:12:23;101694.97;;;18.02;35.12
2675;BME280;1347;42.122;24.746;2023-02-13T08:14:50;101692.63;;;20.97;31.27
2675;BME280;1347;42.122;24.746;2023-02-13T08:17:17;101692.38;;;23.62;28.18
2675;BME280;1347;42.122;24.746;2023-02-13T08:19:43;101700.63;;;25.08;26.96
2675;BME280;1347;42.122;24.746;2023-02-13T08:22:12;101695.06;;;25.76;25.97
2675;BME280;1347;42.122;24.746;2023-02-13T08:24:38;101696.69;;;26.85;24.64
2675;BME280;1347;42.122;24.746;2023-02-13T08:27:05;101685.91;;;26.29;25.28
2675;BME280;1347;42.122;24.746;2023-02-13T08:29:32;101696.09;;;26.97;24.42
2675;BME280;1347;42.122;24.746;2023-02-13T08:31:59;101689.41;;;27.90;23.20
2675;BME280;1347;42.122;24.746;2023-02-13T08:34:26;101692.16;;;26.91;23.32
2675;BME280;1347;42.122;24.746;2023-02-13T08:36:53;101682.09;;;26.43;24.12
2675;BME280;1347;42.122;24.746;2023-02-13T08:39:21;101694.31;;;28.58;23.15
2675;BME280;1347;42.122;24.746;2023-02-13T08:41:48;101679.59;;;29.27;22.62
2675;BME280;1347;42.122;24.746;2023-02-13T08:44:15;101685.53;;;29.17;22.40
2675;BME280;1347;42.122;24.746;2023-02-13T08:46:42;101687.25;;;28.82;21.94
2675;BME280;1347;42.122;24.746;2023-02-13T08:49:09;101675.50;;;27.82;22.52
2675;BME280;1347;42.122;24.746;2023-02-13T08:51:36;101678.84;;;29.94;22.26
2675;BME280;1347;42.122;24.746;2023-02-13T08:54:03;101673.69;;;31.03;21.34
2675;BME280;1347;42.122;24.746;2023-02-13T08:56:31;101677.81;;;31.45;20.79
2675;BME280;1347;42.122;24.746;2023-02-13T08:58:58;101677.19;;;32.25;20.11
2675;BME280;1347;42.122;24.746;2023-02-13T09:01:25;101674.56;;;33.25;20.04
2675;BME280;1347;42.122;24.746;2023-02-13T09:03:51;101676.94;;;33.96;19.66
2675;BME280;1347;42.122;24.746;2023-02-13T09:06:18;101672.22;;;31.55;19.95
2675;BME280;1347;42.122;24.746;2023-02-13T09:08:46;101659.63;;;29.89;21.39
2675;BME280;1347;42.122;24.746;2023-02-13T09:11:13;101657.72;;;29.15;21.44
2675;BME280;1347;42.122;24.746;2023-02-13T09:13:41;101661.63;;;29.05;21.68
2675;BME280;1347;42.122;24.746;2023-02-13T09:16:09;101646.13;;;27.64;22.26
2675;BME280;1347;42.122;24.746;2023-02-13T09:18:36;101649.88;;;25.94;23.55
2675;BME280;1347;42.122;24.746;2023-02-13T09:21:06;101648.00;;;25.19;24.56
2675;BME280;1347;42.122;24.746;2023-02-13T09:23:35;101644.72;;;25.24;24.68
2675;BME280;1347;42.122;24.746;2023-02-13T09:26:04;101639.19;;;25.17;24.29
2675;BME280;1347;42.122;24.746;2023-02-13T09:28:33;101637.22;;;25.82;24.11
2675;BME280;1347;42.122;24.746;2023-02-13T09:31:05;101631.47;;;26.16;23.88
2675;BME280;1347;42.122;24.746;2023-02-13T09:33:32;101627.88;;;27.29;23.50
2675;BME280;1347;42.122;24.746;2023-02-13T09:36:03;101621.53;;;28.81;22.05
2675;BME280;1347;42.122;24.746;2023-02-13T09:38:30;101622.00;;;29.09;21.55
2675;BME280;1347;42.122;24.746;2023-02-13T09:40:59;101623.22;;;28.63;21.62
2675;BME280;1347;42.122;24.746;2023-02-13T09:43:29;101616.84;;;29.20;21.58
2675;BME280;1347;42.122;24.746;2023-02-13T09:46:00;101611.41;;;27.07;22.60
2675;BME280;1347;42.122;24.746;2023-02-13T09:48:34;101604.16;;;25.29;23.88
2675;BME280;1347;42.122;24.746;2023-02-13T09:51:03;101598.13;;;25.30;24.45
2675;BME280;1347;42.122;24.746;2023-02-13T09:53:31;101595.84;;;25.22;24.55
2675;BME280;1347;42.122;24.746;2023-02-13T09:56:07;101599.34;;;25.90;24.27
2675;BME280;1347;42.122;24.746;2023-02-13T09:58:42;101593.94;;;26.03;24.13
2675;BME280;1347;42.122;24.746;2023-02-13T10:01:25;101584.13;;;25.61;23.95
2675;BME280;1347;42.122;24.746;2023-02-13T10:04:11;101578.13;;;23.25;25.78
2675;BME280;1347;42.122;24.746;2023-02-13T10:06:44;101571.91;;;22.57;26.48
2675;BME280;1347;42.122;24.746;2023-02-13T10:09:21;101566.69;;;22.73;26.64
2675;BME280;1347;42.122;24.746;2023-02-13T10:12:11;101556.94;;;23.21;26.30
2675;BME280;1347;42.122;24.746;2023-02-13T10:14:46;101547.25;;;24.05;25.80
2675;BME280;1347;42.122;24.746;2023-02-13T10:17:19;101551.94;;;24.26;25.71
2675;BME280;1347;42.122;24.746;2023-02-13T10:19:53;101553.91;;;25.08;24.60
2675;BME280;1347;42.122;24.746;2023-02-13T10:22:25;101554.75;;;25.65;24.28
2675;BME280;1347;42.122;24.746;2023-02-13T10:25:02;101544.78;;;25.00;24.76
2675;BME280;1347;42.122;24.746;2023-02-13T10:27:33;101536.84;;;24.91;24.92
2675;BME280;1347;42.122;24.746;2023-02-13T10:30:04;101527.03;;;24.73;25.01
2675;BME280;1347;42.122;24.746;2023-02-13T10:32:46;101525.66;;;23.47;25.36
2675;BME280;1347;42.122;24.746;2023-02-13T10:35:25;101514.84;;;23.45;25.69
2675;BME280;1347;42.122;24.746;2023-02-13T10:37:55;101506.66;;;23.10;25.77
2675;BME280;1347;42.122;24.746;2023-02-13T10:40:29;101504.41;;;22.66;26.53
2675;BME280;1347;42.122;24.746;2023-02-13T10:43:02;101504.03;;;21.61;27.02
2675;BME280;1347;42.122;24.746;2023-02-13T10:45:58;101498.13;;;19.66;28.62
2675;BME280;1347;42.122;24.746;2023-02-13T10:48:46;101476.41;;;19.45;29.09
2675;BME280;1347;42.122;24.746;2023-02-13T10:51:23;101485.84;;;20.87;27.68
2675;BME280;1347;42.122;24.746;2023-02-13T10:54:03;101481.69;;;21.68;27.25
2675;BME280;1347;42.122;24.746;2023-02-13T10:56:38;101478.16;;;20.60;28.51
2675;BME280;1347;42.122;24.746;2023-02-13T10:59:30;101467.63;;;21.15;27.74
2675;BME280;1347;42.122;24.746;2023-02-13T11:02:02;101464.56;;;21.77;27.74
2675;BME280;1347;42.122;24.746;2023-02-13T11:04:35;101451.47;;;23.10;26.25
2675;BME280;1347;42.122;24.746;2023-02-13T11:07:10;101457.75;;;22.31;26.03
2675;BME280;1347;42.122;24.746;2023-02-13T11:09:40;101450.06;;;22.63;26.36
2675;BME280;1347;42.122;24.746;2023-02-13T11:12:24;101446.47;;;22.63;26.39
2675;BME280;1347;42.122;24.746;2023-02-13T11:14:56;101447.78;;;22.19;26.85
2675;BME280;1347;42.122;24.746;2023-02-13T11:17:24;101431.44;;;21.25;27.30
2675;BME280;1347;42.122;24.746;2023-02-13T11:19:54;101434.19;;;20.32;28.21
2675;BME280;1347;42.122;24.746;2023-02-13T11:22:30;101424.50;;;19.57;28.57
2675;BME280;1347;42.122;24.746;2023-02-13T11:25:00;101424.41;;;19.09;29.13
2675;BME280;1347;42.122;24.746;2023-02-13T11:27:31;101413.94;;;19.36;28.59
2675;BME280;1347;42.122;24.746;2023-02-13T11:30:01;101414.41;;;20.47;27.84
2675;BME280;1347;42.122;24.746;2023-02-13T11:32:31;101397.97;;;21.54;27.05
2675;BME280;1347;42.122;24.746;2023-02-13T11:35:19;101391.97;;;21.30;27.29
2675;BME280;1347;42.122;24.746;2023-02-13T11:38:10;101401.09;;;23.14;25.74
2675;BME280;1347;42.122;24.746;2023-02-13T11:40:38;101391.41;;;24.56;24.76
2675;BME280;1347;42.122;24.746;2023-02-13T11:43:07;101390.56;;;24.25;24.39
2675;BME280;1347;42.122;24.746;2023-02-13T11:45:34;101378.59;;;22.69;25.27
2675;BME280;1347;42.122;24.746;2023-02-13T11:48:08;101374.44;;;21.30;26.70
2675;BME280;1347;42.122;24.746;2023-02-13T11:50:35;101368.94;;;20.33;27.35
2675;BME280;1347;42.122;24.746;2023-02-13T11:53:06;101368.53;;;18.81;28.60
2675;BME280;1347;42.122;24.746;2023-02-13T11:55:35;101360.09;;;17.84;29.89
2675;BME280;1347;42.122;24.746;2023-02-13T11:58:20;101351.34;;;17.82;29.60
2675;BME280;1347;42.122;24.746;2023-02-13T12:00:48;101356.88;;;17.10;29.86
2675;BME280;1347;42.122;24.746;2023-02-13T12:03:27;101345.63;;;16.61;30.33
2675;BME280;1347;42.122;24.746;2023-02-13T12:06:03;101343.84;;;16.91;30.18
2675;BME280;1347;42.122;24.746;2023-02-13T12:08:33;101349.78;;;17.84;29.40
2675;BME280;1347;42.122;24.746;2023-02-13T12:11:08;101340.44;;;17.96;29.57
2675;BME280;1347;42.122;24.746;2023-02-13T12:13:40;101337.25;;;19.35;28.29
2675;BME280;1347;42.122;24.746;2023-02-13T12:16:12;101337.25;;;20.55;27.11
2675;BME280;1347;42.122;24.746;2023-02-13T12:18:44;101322.94;;;22.06;25.48
2675;BME280;1347;42.122;24.746;2023-02-13T12:21:21;101315.06;;;21.51;25.54
2675;BME280;1347;42.122;24.746;2023-02-13T12:23:58;101317.00;;;21.68;25.32
2675;BME280;1347;42.122;24.746;2023-02-13T12:26:30;101324.28;;;22.60;24.39
2675;BME280;1347;42.122;24.746;2023-02-13T12:29:24;101316.28;;;23.24;24.21
2675;BME280;1347;42.122;24.746;2023-02-13T12:32:00;101314.34;;;24.37;23.30
2675;BME280;1347;42.122;24.746;2023-02-13T12:34:59;101311.03;;;24.46;21.92
2675;BME280;1347;42.122;24.746;2023-02-13T12:37:57;101318.84;;;25.15;21.37
2675;BME280;1347;42.122;24.746;2023-02-13T12:40:38;101313.91;;;26.32;21.34
2675;BME280;1347;42.122;24.746;2023-02-13T12:43:21;101319.00;;;28.16;20.50
2675;BME280;1347;42.122;24.746;2023-02-13T12:45:59;101313.31;;;28.03;20.92
2675;BME280;1347;42.122;24.746;2023-02-13T12:48:36;101304.13;;;27.58;20.89
2675;BME280;1347;42.122;24.746;2023-02-13T12:51:22;101302.63;;;27.04;20.76
2675;BME280;1347;42.122;24.746;2023-02-13T12:54:04;101306.81;;;26.24;20.98
2675;BME280;1347;42.122;24.746;2023-02-13T12:56:47;101294.34;;;26.25;21.26
2675;BME280;1347;42.122;24.746;2023-02-13T12:59:26;101296.69;;;26.47;20.70
2675;BME280;1347;42.122;24.746;2023-02-13T13:02:15;101288.63;;;27.33;20.78
2675;BME280;1347;42.122;24.746;2023-02-13T13:04:54;101290.50;;;27.69;20.29
2675;BME280;1347;42.122;24.746;2023-02-13T13:07:39;101284.59;;;25.71;21.44
2675;BME280;1347;42.122;24.746;2023-02-13T13:10:24;101278.88;;;24.54;21.96
2675;BME280;1347;42.122;24.746;2023-02-13T13:13:02;101290.53;;;23.43;22.81
2675;BME280;1347;42.122;24.746;2023-02-13T13:15:38;101278.19;;;22.23;23.65
2675;BME280;1347;42.122;24.746;2023-02-13T13:18:17;101276.56;;;20.16;25.35
2675;BME280;1347;42.122;24.746;2023-02-13T13:20:56;101273.75;;;18.52;26.29
2675;BME280;1347;42.122;24.746;2023-02-13T13:23:30;101270.03;;;17.25;28.55
2675;BME280;1347;42.122;24.746;2023-02-13T13:26:06;101261.13;;;16.67;28.73
2675;BME280;1347;42.122;24.746;2023-02-13T13:28:39;101259.28;;;16.13;29.31
2675;BME280;1347;42.122;24.746;2023-02-13T13:31:08;101265.03;;;15.85;29.98
2675;BME280;1347;42.122;24.746;2023-02-13T13:33:39;101263.72;;;15.13;30.48
2675;BME280;1347;42.122;24.746;2023-02-13T13:36:12;101259.19;;;14.73;31.34